createdAt,value
2023-02-06T00:01:32.052Z,93.50
2023-02-06T00:03:58.702Z,93.60
2023-02-06T00:06:25.592Z,93.60
2023-02-06T00:08:52.377Z,93.50
2023-02-06T00:11:19.302Z,93.60
2023-02-06T00:13:46.103Z,93.60
2023-02-06T00:16:17.484Z,93.60
2023-02-06T00:18:44.328Z,93.60
2023-02-06T00:21:11.133Z,93.70
2023-02-06T00:23:37.817Z,93.80
2023-02-06T00:26:05.365Z,93.80
2023-02-06T00:28:32.249Z,93.80
2023-02-06T00:30:58.970Z,93.70
2023-02-06T00:33:25.815Z,93.60
2023-02-06T00:35:54.252Z,93.50
2023-02-06T00:38:20.946Z,93.40
2023-02-06T00:40:47.629Z,93.40
2023-02-06T00:43:14.411Z,93.50
2023-02-06T00:45:41.038Z,93.40
2023-02-06T00:48:09.153Z,93.40
2023-02-06T00:50:36.720Z,93.30
2023-02-06T00:53:03.651Z,93.30
2023-02-06T00:55:30.446Z,93.30
2023-02-06T00:57:57.128Z,93.30
2023-02-06T01:00:23.754Z,93.40
2023-02-06T01:02:51.228Z,93.70
2023-02-06T01:05:18.128Z,93.30
2023-02-06T01:07:44.952Z,93.20
2023-02-06T01:10:12.679Z,93.20
2023-02-06T01:12:39.380Z,93.40
2023-02-06T01:15:06.941Z,93.40
2023-02-06T01:17:34.137Z,93.50
2023-02-06T01:20:00.940Z,93.60
2023-02-06T01:22:27.816Z,93.50
2023-02-06T01:24:54.464Z,93.50
2023-02-06T01:27:21.179Z,93.60
2023-02-06T01:29:47.860Z,93.50
2023-02-06T01:32:14.639Z,93.60
2023-02-06T01:34:41.363Z,93.50
2023-02-06T01:37:08.687Z,93.40
2023-02-06T01:39:35.440Z,93.30
2023-02-06T01:42:02.469Z,93.30
2023-02-06T01:44:31.297Z,93.30
2023-02-06T01:46:58.416Z,93.20
2023-02-06T01:49:30.279Z,93.20
2023-02-06T01:52:02.960Z,93.10
2023-02-06T01:54:29.744Z,93.00
2023-02-06T01:56:58.904Z,92.90
2023-02-06T01:59:26.057Z,92.90
2023-02-06T02:01:52.920Z,92.80
2023-02-06T02:04:21.313Z,92.80
2023-02-06T02:06:52.542Z,92.80
2023-02-06T02:09:19.727Z,92.80
2023-02-06T02:11:46.544Z,92.70
2023-02-06T02:14:14.601Z,92.80
2023-02-06T02:17:00.228Z,92.90
2023-02-06T02:19:45.774Z,92.90
2023-02-06T02:22:31.465Z,92.90
2023-02-06T02:25:21.918Z,93.00
2023-02-06T02:27:57.810Z,93.00
2023-02-06T02:30:44.747Z,93.00
2023-02-06T02:33:30.553Z,93.00
2023-02-06T02:36:09.792Z,93.00
2023-02-06T02:38:50.006Z,92.90
2023-02-06T02:41:21.282Z,92.90
2023-02-06T02:43:55.288Z,92.90
2023-02-06T02:46:25.212Z,92.90
2023-02-06T02:48:53.959Z,92.80
2023-02-06T02:51:21.094Z,92.80
2023-02-06T02:53:48.144Z,92.80
2023-02-06T02:56:17.386Z,92.80
2023-02-06T02:58:45.011Z,92.80
2023-02-06T03:01:16.512Z,92.80
2023-02-06T03:03:44.547Z,92.90
2023-02-06T03:06:30.025Z,92.90
2023-02-06T03:08:56.759Z,92.90
2023-02-06T03:11:23.933Z,92.90
2023-02-06T03:14:06.039Z,92.90
2023-02-06T03:16:42.416Z,93.00
2023-02-06T03:19:11.680Z,93.00
2023-02-06T03:21:39.161Z,93.00
2023-02-06T03:24:08.300Z,93.00
2023-02-06T03:26:37.141Z,93.00
2023-02-06T03:29:06.132Z,93.00
2023-02-06T03:31:35.783Z,92.90
2023-02-06T03:34:06.701Z,92.90
2023-02-06T03:36:33.609Z,92.80
2023-02-06T03:39:00.352Z,92.80
2023-02-06T03:41:29.406Z,92.70
2023-02-06T03:43:56.823Z,92.70
2023-02-06T03:46:25.266Z,92.70
2023-02-06T03:48:53.771Z,92.70
2023-02-06T03:51:53.194Z,92.70
2023-02-06T03:54:21.000Z,92.80
2023-02-06T03:56:50.275Z,92.70
2023-02-06T03:59:17.104Z,92.70
2023-02-06T04:01:45.703Z,92.80
2023-02-06T04:04:14.975Z,92.70
2023-02-06T04:06:41.647Z,92.80
2023-02-06T04:09:08.326Z,92.80
2023-02-06T04:11:35.234Z,92.80
2023-02-06T04:14:01.942Z,92.70
2023-02-06T04:16:29.032Z,92.70
2023-02-06T04:18:55.792Z,92.70
2023-02-06T04:21:22.456Z,92.70
2023-02-06T04:23:49.147Z,92.70
2023-02-06T04:26:15.873Z,92.70
2023-02-06T04:28:42.706Z,92.70
2023-02-06T04:31:09.515Z,92.70
2023-02-06T04:33:36.269Z,92.80
2023-02-06T04:36:03.015Z,92.80
2023-02-06T04:38:29.810Z,92.90
2023-02-06T04:41:01.899Z,92.90
2023-02-06T04:43:28.714Z,92.90
2023-02-06T04:45:55.558Z,92.90
2023-02-06T04:48:22.459Z,92.80
2023-02-06T04:50:49.643Z,92.80
2023-02-06T04:53:16.615Z,92.70
2023-02-06T04:55:43.358Z,92.70
2023-02-06T04:58:10.073Z,92.90
2023-02-06T05:00:38.768Z,93.10
2023-02-06T05:03:05.694Z,93.20
2023-02-06T05:05:32.341Z,93.10
2023-02-06T05:07:59.153Z,93.10
2023-02-06T05:10:26.940Z,93.00
2023-02-06T05:12:55.939Z,93.00
2023-02-06T05:15:22.710Z,93.00
2023-02-06T05:17:49.571Z,93.10
2023-02-06T05:20:16.393Z,93.10
2023-02-06T05:22:43.097Z,93.10
2023-02-06T05:25:09.807Z,93.10
2023-02-06T05:27:36.515Z,93.20
2023-02-06T05:30:03.470Z,93.20
2023-02-06T05:32:30.150Z,93.20
2023-02-06T05:34:56.831Z,93.20
2023-02-06T05:37:23.676Z,93.20
2023-02-06T05:39:50.293Z,93.20
2023-02-06T05:42:17.050Z,93.30
2023-02-06T05:44:43.682Z,93.40
2023-02-06T05:47:10.389Z,93.50
2023-02-06T05:49:37.106Z,93.50
2023-02-06T05:52:03.849Z,93.50
2023-02-06T05:54:30.836Z,93.50
2023-02-06T05:56:57.913Z,93.50
2023-02-06T05:59:24.679Z,93.50
2023-02-06T06:01:51.458Z,93.50
2023-02-06T06:04:18.100Z,93.60
2023-02-06T06:06:45.009Z,94.00
2023-02-06T06:09:11.731Z,93.60
2023-02-06T06:11:38.500Z,93.60
2023-02-06T06:14:05.452Z,93.60
2023-02-06T06:16:32.387Z,93.60
2023-02-06T06:18:59.149Z,93.60
2023-02-06T06:21:25.871Z,93.60
2023-02-06T06:23:52.476Z,93.60
2023-02-06T06:26:19.265Z,93.70
2023-02-06T06:28:46.118Z,93.70
2023-02-06T06:31:13.045Z,93.70
2023-02-06T06:33:39.857Z,93.70
2023-02-06T06:36:07.673Z,93.80
2023-02-06T06:38:34.404Z,93.80
2023-02-06T06:41:01.102Z,93.80
2023-02-06T06:43:27.955Z,93.80
2023-02-06T06:45:54.710Z,93.80
2023-02-06T06:48:21.521Z,93.80
2023-02-06T06:50:51.695Z,93.80
2023-02-06T06:53:18.425Z,93.70
2023-02-06T06:55:45.293Z,93.80
2023-02-06T06:58:11.925Z,93.90
2023-02-06T07:00:39.791Z,94.00
2023-02-06T07:03:07.279Z,94.10
2023-02-06T07:05:34.640Z,94.20
2023-02-06T07:08:01.566Z,94.30
2023-02-06T07:10:28.213Z,94.30
2023-02-06T07:12:56.575Z,94.40
2023-02-06T07:15:23.582Z,94.30
2023-02-06T07:17:50.239Z,94.30
2023-02-06T07:20:17.032Z,94.40
2023-02-06T07:22:43.630Z,94.40
2023-02-06T07:25:10.440Z,94.50
2023-02-06T07:27:37.073Z,94.40
2023-02-06T07:30:06.371Z,94.50
2023-02-06T07:32:34.897Z,94.60
2023-02-06T07:35:01.643Z,94.60
2023-02-06T07:37:28.377Z,94.70
2023-02-06T07:39:55.059Z,94.70
2023-02-06T07:42:21.781Z,94.70
2023-02-06T07:44:56.518Z,94.70
2023-02-06T07:47:23.190Z,94.60
2023-02-06T07:49:49.797Z,94.60
2023-02-06T07:52:16.648Z,94.50
2023-02-06T07:54:43.344Z,94.40
2023-02-06T07:57:10.042Z,94.40
2023-02-06T07:59:36.788Z,94.30
2023-02-06T08:02:03.825Z,94.30
2023-02-06T08:04:35.121Z,94.30
2023-02-06T08:07:02.429Z,94.30
2023-02-06T08:09:29.178Z,94.30
2023-02-06T08:11:55.943Z,94.30
2023-02-06T08:14:23.578Z,94.70
2023-02-06T08:16:50.814Z,94.30
2023-02-06T08:19:17.850Z,94.30
2023-02-06T08:21:44.611Z,94.30
2023-02-06T08:24:11.925Z,94.30
2023-02-06T08:26:38.738Z,94.30
2023-02-06T08:29:06.677Z,94.30
2023-02-06T08:31:35.588Z,94.30
2023-02-06T08:34:02.353Z,94.30
2023-02-06T08:36:32.613Z,94.30
2023-02-06T08:39:00.431Z,94.30
2023-02-06T08:41:32.281Z,94.70
2023-02-06T08:44:00.457Z,94.30
2023-02-06T08:46:28.789Z,94.30
2023-02-06T08:48:56.549Z,94.40
2023-02-06T08:51:23.430Z,94.40
2023-02-06T08:53:50.152Z,94.40
2023-02-06T08:56:16.874Z,94.50
2023-02-06T08:58:43.599Z,94.50
2023-02-06T09:01:13.690Z,94.60
2023-02-06T09:03:41.667Z,94.70
2023-02-06T09:06:10.493Z,94.70
2023-02-06T09:08:37.968Z,94.70
2023-02-06T09:11:06.110Z,94.60
2023-02-06T09:13:33.076Z,94.60
2023-02-06T09:16:00.097Z,94.60
2023-02-06T09:18:26.927Z,94.60
2023-02-06T09:21:02.810Z,94.50
2023-02-06T09:23:29.768Z,94.50
2023-02-06T09:25:56.490Z,94.60
2023-02-06T09:28:23.335Z,94.60
2023-02-06T09:30:50.215Z,94.60
2023-02-06T09:33:17.285Z,94.70
2023-02-06T09:35:44.164Z,94.70
2023-02-06T09:38:11.008Z,94.80
2023-02-06T09:40:37.748Z,94.80
2023-02-06T09:43:04.962Z,94.90
2023-02-06T09:45:32.270Z,94.90
2023-02-06T09:48:20.353Z,94.90
2023-02-06T09:51:05.497Z,94.80
2023-02-06T09:53:32.446Z,94.80
2023-02-06T09:56:12.380Z,94.90
2023-02-06T09:58:57.899Z,95.00
2023-02-06T10:01:27.877Z,95.10
2023-02-06T10:03:59.683Z,95.10
2023-02-06T10:06:40.705Z,95.10
2023-02-06T10:09:13.981Z,95.10
2023-02-06T10:11:47.803Z,95.10
2023-02-06T10:14:19.110Z,95.10
2023-02-06T10:16:48.279Z,95.10
2023-02-06T10:19:19.139Z,95.10
2023-02-06T10:21:55.021Z,95.10
2023-02-06T10:24:41.733Z,95.10
2023-02-06T10:27:13.185Z,95.20
2023-02-06T10:29:40.695Z,95.20
2023-02-06T10:32:26.987Z,95.10
2023-02-06T10:35:12.564Z,95.10
2023-02-06T10:37:48.583Z,95.20
2023-02-06T10:40:25.996Z,95.20
2023-02-06T10:42:52.674Z,95.20
2023-02-06T10:45:22.318Z,95.20
2023-02-06T10:48:09.379Z,95.20
2023-02-06T10:50:42.319Z,95.10
2023-02-06T10:53:30.513Z,95.10
2023-02-06T10:55:59.324Z,95.10
2023-02-06T10:58:32.726Z,95.10
2023-02-06T11:00:59.868Z,95.10
2023-02-06T11:03:31.852Z,95.10
2023-02-06T11:05:59.392Z,95.20
2023-02-06T11:08:33.797Z,95.30
2023-02-06T11:11:17.378Z,95.20
2023-02-06T11:13:45.884Z,95.20
2023-02-06T11:16:16.240Z,95.30
2023-02-06T11:18:45.022Z,95.30
2023-02-06T11:21:12.881Z,95.30
2023-02-06T11:23:40.594Z,95.40
2023-02-06T11:26:10.798Z,95.40
2023-02-06T11:28:39.670Z,95.30
2023-02-06T11:31:07.884Z,95.30
2023-02-06T11:33:34.525Z,95.30
2023-02-06T11:36:03.124Z,95.20
2023-02-06T11:38:31.015Z,95.10
2023-02-06T11:41:00.891Z,95.10
2023-02-06T11:43:30.608Z,95.20
2023-02-06T11:46:16.165Z,95.30
2023-02-06T11:48:47.529Z,95.70
2023-02-06T11:51:14.962Z,95.30
2023-02-06T11:54:14.298Z,95.20
2023-02-06T11:56:54.704Z,95.20
2023-02-06T11:59:23.146Z,95.20
2023-02-06T12:01:50.129Z,95.20
2023-02-06T12:04:30.562Z,95.20
2023-02-06T12:07:01.381Z,95.20
2023-02-06T12:09:28.308Z,95.00
2023-02-06T12:12:00.991Z,94.90
2023-02-06T12:14:46.325Z,94.90
2023-02-06T12:17:25.103Z,94.80
2023-02-06T12:20:12.110Z,94.90
2023-02-06T12:22:59.116Z,94.90
2023-02-06T12:25:28.047Z,94.90
2023-02-06T12:27:56.821Z,95.00
2023-02-06T12:30:31.628Z,95.00
2023-02-06T12:33:18.597Z,94.90
2023-02-06T12:35:47.890Z,94.90
2023-02-06T12:38:33.509Z,94.90
2023-02-06T12:41:11.530Z,94.90
2023-02-06T12:43:39.425Z,94.80
2023-02-06T12:46:10.446Z,94.80
2023-02-06T12:48:40.573Z,94.80
2023-02-06T12:51:19.574Z,94.80
2023-02-06T12:53:51.232Z,94.80
2023-02-06T12:56:18.007Z,94.80
2023-02-06T12:58:44.942Z,94.80
2023-02-06T13:01:34.245Z,94.90
2023-02-06T13:04:09.845Z,94.80
2023-02-06T13:06:44.132Z,94.70
2023-02-06T13:09:17.234Z,94.70
2023-02-06T13:11:44.281Z,94.60
2023-02-06T13:14:17.835Z,94.50
2023-02-06T13:16:52.536Z,94.50
2023-02-06T13:19:20.467Z,94.60
2023-02-06T13:21:51.453Z,94.60
2023-02-06T13:24:21.922Z,94.60
2023-02-06T13:26:51.454Z,94.60
2023-02-06T13:29:25.278Z,94.60
2023-02-06T13:32:24.655Z,94.60
2023-02-06T13:35:00.374Z,94.50
2023-02-06T13:37:39.216Z,94.50
2023-02-06T13:40:24.625Z,94.50
2023-02-06T13:42:54.636Z,94.60
2023-02-06T13:45:23.425Z,94.50
2023-02-06T13:48:09.981Z,94.50
2023-02-06T13:50:48.599Z,94.50
2023-02-06T13:53:22.685Z,94.50
2023-02-06T13:56:10.656Z,94.50
2023-02-06T13:58:54.196Z,94.60
2023-02-06T14:01:30.803Z,94.60
2023-02-06T14:04:00.912Z,94.60
2023-02-06T14:06:27.680Z,94.70
2023-02-06T14:08:57.308Z,94.50
2023-02-06T14:11:58.225Z,94.50
2023-02-06T14:14:35.036Z,94.50
2023-02-06T14:17:04.745Z,94.60
2023-02-06T14:19:34.691Z,94.60
2023-02-06T14:22:04.578Z,94.60
2023-02-06T14:24:31.410Z,94.50
2023-02-06T14:27:13.443Z,94.40
2023-02-06T14:29:47.899Z,94.40
2023-02-06T14:32:23.958Z,94.40
2023-02-06T14:35:01.252Z,94.40
2023-02-06T14:37:38.216Z,94.30
2023-02-06T14:40:11.545Z,94.30
2023-02-06T14:42:39.654Z,94.40
2023-02-06T14:45:08.270Z,94.40
2023-02-06T14:47:42.124Z,94.30
2023-02-06T14:50:17.682Z,94.30
2023-02-06T14:52:45.601Z,94.30
2023-02-06T14:55:30.892Z,94.30
2023-02-06T14:57:57.968Z,94.30
2023-02-06T15:00:25.920Z,94.30
2023-02-06T15:03:13.606Z,94.20
2023-02-06T15:05:40.379Z,94.20
2023-02-06T15:08:07.421Z,94.10
2023-02-06T15:10:37.548Z,94.10
2023-02-06T15:13:19.780Z,94.10
2023-02-06T15:15:52.901Z,94.00
2023-02-06T15:18:19.729Z,94.00
2023-02-06T15:20:51.801Z,94.00
2023-02-06T15:23:23.183Z,94.00
2023-02-06T15:25:49.888Z,94.10
2023-02-06T15:28:18.878Z,94.00
2023-02-06T15:30:45.879Z,94.00
2023-02-06T15:33:17.224Z,94.00
2023-02-06T15:35:48.437Z,93.90
2023-02-06T15:38:17.262Z,93.90
2023-02-06T15:40:45.238Z,93.80
2023-02-06T15:43:16.058Z,93.80
2023-02-06T15:45:44.109Z,93.80
2023-02-06T15:48:23.596Z,93.80
2023-02-06T15:50:56.818Z,93.90
2023-02-06T15:53:31.703Z,94.00
2023-02-06T15:55:58.769Z,94.00
2023-02-06T15:58:25.915Z,94.00
2023-02-06T16:00:54.482Z,93.90
2023-02-06T16:03:23.317Z,93.90
2023-02-06T16:05:51.282Z,93.80
2023-02-06T16:08:26.400Z,93.80
2023-02-06T16:10:58.185Z,93.70
2023-02-06T16:13:26.069Z,93.60
2023-02-06T16:16:11.778Z,93.60
2023-02-06T16:18:39.570Z,93.60
2023-02-06T16:21:18.072Z,93.60
2023-02-06T16:23:51.452Z,93.50
2023-02-06T16:26:20.503Z,93.50
2023-02-06T16:28:51.552Z,93.50
2023-02-06T16:31:21.424Z,93.50
2023-02-06T16:33:49.851Z,93.50
2023-02-06T16:36:20.158Z,93.50
2023-02-06T16:39:02.885Z,93.50
2023-02-06T16:41:36.187Z,93.50
2023-02-06T16:44:04.848Z,93.50
2023-02-06T16:46:31.837Z,93.50
2023-02-06T16:48:59.698Z,93.50
2023-02-06T16:51:30.108Z,93.50
2023-02-06T16:54:01.435Z,93.40
2023-02-06T16:56:32.213Z,93.40
2023-02-06T16:58:59.109Z,93.80
2023-02-06T17:01:28.231Z,93.60
2023-02-06T17:03:55.462Z,93.70
2023-02-06T17:06:24.057Z,93.70
2023-02-06T17:08:51.665Z,93.80
2023-02-06T17:11:18.519Z,93.70
2023-02-06T17:13:47.519Z,93.70
2023-02-06T17:16:18.990Z,93.70
2023-02-06T17:18:46.557Z,93.70
2023-02-06T17:21:14.572Z,93.60
2023-02-06T17:23:42.034Z,93.50
2023-02-06T17:26:20.146Z,93.40
2023-02-06T17:28:50.206Z,93.70
2023-02-06T17:31:17.787Z,93.30
2023-02-06T17:33:48.569Z,93.70
2023-02-06T17:36:29.708Z,93.30
2023-02-06T17:38:58.943Z,93.40
2023-02-06T17:41:30.756Z,93.50
2023-02-06T17:44:00.240Z,93.60
2023-02-06T17:46:27.354Z,93.60
2023-02-06T17:48:54.643Z,93.50
2023-02-06T17:51:21.482Z,93.40
2023-02-06T17:53:49.970Z,93.30
2023-02-06T17:56:22.705Z,93.30
2023-02-06T17:58:49.706Z,93.30
2023-02-06T18:01:21.556Z,93.30
2023-02-06T18:03:48.415Z,93.30
2023-02-06T18:06:15.287Z,93.30
2023-02-06T18:08:42.775Z,93.40
2023-02-06T18:11:11.587Z,93.40
2023-02-06T18:13:39.612Z,93.50
2023-02-06T18:16:06.867Z,93.50
2023-02-06T18:18:33.912Z,93.50
2023-02-06T18:21:00.587Z,93.50
2023-02-06T18:23:27.699Z,93.40
2023-02-06T18:25:54.463Z,93.40
2023-02-06T18:28:21.360Z,93.40
2023-02-06T18:30:49.015Z,93.40
2023-02-06T18:33:15.944Z,93.30
2023-02-06T18:35:44.834Z,93.30
2023-02-06T18:38:12.694Z,93.30
2023-02-06T18:40:40.310Z,93.80
2023-02-06T18:43:07.749Z,93.50
2023-02-06T18:45:36.137Z,93.40
2023-02-06T18:48:05.054Z,93.50
2023-02-06T18:50:33.082Z,93.50
2023-02-06T18:53:00.412Z,93.50
2023-02-06T18:55:27.379Z,93.50
2023-02-06T18:57:56.567Z,93.40
2023-02-06T19:00:23.559Z,93.30
2023-02-06T19:02:50.640Z,93.40
2023-02-06T19:05:17.818Z,93.40
2023-02-06T19:07:48.374Z,93.40
2023-02-06T19:10:16.278Z,93.50
2023-02-06T19:12:43.169Z,93.50
2023-02-06T19:15:10.618Z,93.60
2023-02-06T19:17:37.722Z,93.70
2023-02-06T19:20:07.638Z,93.70
2023-02-06T19:22:39.342Z,93.70
2023-02-06T19:25:10.219Z,93.80
2023-02-06T19:27:38.527Z,93.70
2023-02-06T19:30:07.670Z,93.70
2023-02-06T19:32:34.856Z,93.80
2023-02-06T19:35:02.304Z,93.70
2023-02-06T19:37:29.153Z,93.70
2023-02-06T19:39:56.070Z,93.70
2023-02-06T19:42:22.821Z,93.70
2023-02-06T19:44:54.035Z,93.80
2023-02-06T19:47:21.217Z,93.80
2023-02-06T19:49:52.392Z,93.80
2023-02-06T19:52:19.439Z,93.80
2023-02-06T19:54:47.699Z,93.80
2023-02-06T19:57:14.924Z,93.70
2023-02-06T19:59:42.009Z,93.70
2023-02-06T20:02:12.847Z,93.70
2023-02-06T20:04:39.912Z,93.70
2023-02-06T20:07:06.929Z,93.70
2023-02-06T20:09:34.027Z,93.70
2023-02-06T20:12:01.064Z,93.60
2023-02-06T20:14:28.029Z,93.50
2023-02-06T20:16:55.122Z,93.40
2023-02-06T20:19:23.405Z,93.40
2023-02-06T20:21:52.512Z,93.30
2023-02-06T20:24:22.010Z,93.30
2023-02-06T20:26:55.766Z,93.40
2023-02-06T20:29:27.546Z,93.60
2023-02-06T20:31:55.667Z,93.70
2023-02-06T20:34:23.186Z,93.80
2023-02-06T20:36:50.607Z,93.70
2023-02-06T20:39:18.500Z,93.70
2023-02-06T20:41:45.802Z,93.70
2023-02-06T20:44:13.388Z,93.70
2023-02-06T20:46:40.632Z,93.70
2023-02-06T20:49:11.187Z,93.70
2023-02-06T20:51:38.037Z,93.70
2023-02-06T20:54:07.576Z,93.70
2023-02-06T20:56:34.393Z,93.80
2023-02-06T20:59:02.453Z,93.70
2023-02-06T21:01:36.922Z,93.70
2023-02-06T21:04:21.470Z,93.70
2023-02-06T21:06:56.491Z,93.80
2023-02-06T21:09:27.175Z,93.90
2023-02-06T21:11:59.889Z,93.90
2023-02-06T21:14:32.406Z,93.90
2023-02-06T21:17:10.783Z,93.90
2023-02-06T21:22:30.604Z,93.90
2023-02-06T21:28:16.303Z,93.90
2023-02-06T21:31:05.887Z,93.90
2023-02-06T21:33:56.356Z,93.90
2023-02-06T21:39:54.711Z,93.70
2023-02-06T21:42:31.949Z,93.70
2023-02-06T21:51:32.713Z,93.60
2023-02-06T21:54:19.629Z,93.80
2023-02-06T21:57:02.243Z,93.80
2023-02-06T22:02:50.500Z,93.80
2023-02-06T22:05:17.200Z,93.80
2023-02-06T22:07:43.990Z,93.70
2023-02-06T22:10:11.114Z,93.60
2023-02-06T22:12:37.721Z,93.50
2023-02-06T22:15:04.664Z,93.60
2023-02-06T22:17:31.888Z,93.50
2023-02-06T22:19:58.619Z,93.50
2023-02-06T22:22:25.575Z,93.40
2023-02-06T22:24:53.003Z,93.50
2023-02-06T22:27:19.721Z,93.50
2023-02-06T22:29:46.372Z,93.50
2023-02-06T22:32:13.442Z,93.50
2023-02-06T22:34:40.197Z,93.40
2023-02-06T22:37:06.867Z,93.40
2023-02-06T22:39:35.239Z,93.40
2023-02-06T22:42:02.126Z,93.50
2023-02-06T22:44:28.886Z,93.50
2023-02-06T22:46:55.706Z,93.50
2023-02-06T22:49:24.359Z,93.50
2023-02-06T22:51:51.113Z,93.40
2023-02-06T22:57:14.045Z,93.40
2023-02-06T22:59:40.739Z,93.40
2023-02-06T23:02:07.446Z,93.40
2023-02-06T23:04:38.517Z,93.40
2023-02-06T23:07:05.379Z,93.40
2023-02-06T23:09:33.158Z,93.40
2023-02-06T23:12:00.975Z,93.40
2023-02-06T23:14:28.436Z,93.40
2023-02-06T23:16:55.634Z,93.40
2023-02-06T23:19:22.258Z,93.30
2023-02-06T23:21:50.061Z,93.30
2023-02-06T23:24:17.295Z,93.30
2023-02-06T23:26:45.525Z,93.20
2023-02-06T23:29:15.701Z,93.20
2023-02-06T23:31:42.962Z,93.60
2023-02-06T23:34:09.852Z,93.10
2023-02-06T23:36:36.538Z,93.10
2023-02-06T23:39:03.721Z,93.60
2023-02-06T23:41:30.534Z,93.30
2023-02-06T23:43:58.578Z,93.30
2023-02-06T23:46:26.294Z,93.40
2023-02-06T23:48:53.494Z,93.40
2023-02-06T23:51:20.857Z,93.50
2023-02-06T23:53:47.846Z,93.40
2023-02-06T23:56:24.584Z,93.40
2023-02-06T23:58:52.319Z,93.40
